createdAt,value
2016-05-13T21:07:19.159Z,17.06
2016-05-13T21:08:19.131Z,16.94
2016-05-13T21:09:18.976Z,16.93
2016-05-13T21:10:19.120Z,16.97
2016-05-13T21:11:19.122Z,16.98
2016-05-13T21:12:19.110Z,16.89
2016-05-13T21:13:18.957Z,16.9
2016-05-13T21:14:18.928Z,16.82
2016-05-13T21:15:18.915Z,16.87
2016-05-13T21:16:19.058Z,16.79
2016-05-13T21:17:19.061Z,16.75
2016-05-13T21:18:19.532Z,16.72
2016-05-13T21:19:19.050Z,16.68
2016-05-13T21:20:19.022Z,16.68
2016-05-13T21:21:19.008Z,16.71
2016-05-13T21:22:18.996Z,16.66
2016-05-13T21:23:19.014Z,16.68
2016-05-13T21:24:18.985Z,16.61
2016-05-13T21:25:18.816Z,16.51
2016-05-13T21:26:18.804Z,16.5
2016-05-13T21:27:18.947Z,16.41
2016-05-13T21:28:18.935Z,16.27
2016-05-13T21:29:18.765Z,16.29
2016-05-13T21:30:18.923Z,16.25
2016-05-13T21:31:18.911Z,16.25
2016-05-13T21:32:18.742Z,16.21
2016-05-13T21:33:18.901Z,16.29
2016-05-13T21:34:18.872Z,16.21
2016-05-13T21:35:18.562Z,16.13
2016-05-13T21:36:18.862Z,16.08
2016-05-13T21:37:18.849Z,15.98
2016-05-13T21:38:18.679Z,15.87
2016-05-13T21:39:18.823Z,15.8
2016-05-13T21:40:18.826Z,15.84
2016-05-13T21:41:18.797Z,15.71
2016-05-13T21:42:18.643Z,15.75
2016-05-13T21:43:18.787Z,15.75
2016-05-13T21:44:18.617Z,15.67
2016-05-13T21:45:18.605Z,15.57
2016-05-13T21:46:18.748Z,15.54
2016-05-13T21:47:18.736Z,15.5
2016-05-13T21:48:19.129Z,15.37
2016-05-13T21:49:18.725Z,15.31
2016-05-13T21:50:18.712Z,15.25
2016-05-13T21:51:18.700Z,15.19
2016-05-13T21:52:18.686Z,15.21
2016-05-13T21:53:18.673Z,15.17
2016-05-13T21:54:18.660Z,15.24
2016-05-13T21:55:18.663Z,15.26
2016-05-13T21:56:18.650Z,15.18
2016-05-13T21:57:18.669Z,15.18
2016-05-13T21:58:18.624Z,15.17
2016-05-13T21:59:18.611Z,15.19
2016-05-13T22:00:18.457Z,15.18
2016-05-13T22:01:18.601Z,15.19
2016-05-13T22:02:18.588Z,15.13
2016-05-13T22:03:18.482Z,15.21
2016-05-13T22:04:18.546Z,15.09
2016-05-13T22:05:18.580Z,15.11
2016-05-13T22:06:18.537Z,15.07
2016-05-13T22:07:18.540Z,15.03
2016-05-13T22:08:18.354Z,15.03
2016-05-13T22:09:18.498Z,14.96
2016-05-13T22:10:18.501Z,14.88
2016-05-13T22:11:18.471Z,14.96
2016-05-13T22:12:18.473Z,14.85
2016-05-13T22:13:18.476Z,14.82
2016-05-13T22:14:18.448Z,14.77
2016-05-13T22:15:18.436Z,14.77
2016-05-13T22:16:18.422Z,14.66
2016-05-13T22:17:18.410Z,14.58
2016-05-13T22:18:18.256Z,14.57
2016-05-13T22:19:18.400Z,14.48
2016-05-13T22:20:18.387Z,14.51
2016-05-13T22:21:18.373Z,14.52
2016-05-13T22:22:18.361Z,14.45
2016-05-13T22:23:18.347Z,14.45
2016-05-13T22:24:18.350Z,14.39
2016-05-13T22:25:18.322Z,14.43
2016-05-13T22:26:18.152Z,14.37
2016-05-13T22:27:18.155Z,14.27
2016-05-13T22:28:18.298Z,14.32
2016-05-13T22:29:18.269Z,14.14
2016-05-13T22:30:18.116Z,14.19
2016-05-13T22:31:18.260Z,14.12
2016-05-13T22:32:18.247Z,14.11
2016-05-13T22:33:18.468Z,14.08
2016-05-13T22:34:18.221Z,14.08
2016-05-13T22:35:18.208Z,13.94
2016-05-13T22:36:18.195Z,13.93
2016-05-13T22:37:18.026Z,13.92
2016-05-13T22:38:18.201Z,13.86
2016-05-13T22:39:18.172Z,13.82
2016-05-13T22:40:18.159Z,13.87
2016-05-13T22:41:18.146Z,13.75
2016-05-13T22:42:17.976Z,13.79
2016-05-13T22:43:18.120Z,13.74
2016-05-13T22:44:18.123Z,13.63
2016-05-13T22:45:18.095Z,13.61
2016-05-13T22:46:18.112Z,13.6
2016-05-13T22:47:18.068Z,13.61
2016-05-13T22:48:18.056Z,13.63
2016-05-13T22:49:18.058Z,13.59
2016-05-13T22:50:17.889Z,13.49
2016-05-13T22:51:18.033Z,13.44
2016-05-13T22:52:17.863Z,13.31
2016-05-13T22:53:18.006Z,13.31
2016-05-13T22:54:17.994Z,13.19
2016-05-13T22:55:18.012Z,13.35
2016-05-13T22:56:17.983Z,13.38
2016-05-13T22:57:17.955Z,13.3
2016-05-13T22:58:17.942Z,13.22
2016-05-13T22:59:17.930Z,13.26
2016-05-13T23:00:17.932Z,13.38
2016-05-13T23:01:17.746Z,13.33
2016-05-13T23:02:17.734Z,13.2
2016-05-13T23:03:17.893Z,13.15
2016-05-13T23:04:17.864Z,13.1
2016-05-13T23:05:17.710Z,13.19
2016-05-13T23:06:17.854Z,13.19
2016-05-13T23:07:17.841Z,13.04
2016-05-13T23:08:17.813Z,13.01
2016-05-13T23:09:17.815Z,13.13
2016-05-13T23:10:17.802Z,13.04
2016-05-13T23:11:17.790Z,13.02
2016-05-13T23:12:17.635Z,13.02
2016-05-13T23:13:17.779Z,12.93
2016-05-13T23:14:17.594Z,12.98
2016-05-13T23:15:17.737Z,12.9
2016-05-13T23:16:17.568Z,12.89
2016-05-13T23:17:17.711Z,12.79
2016-05-13T23:18:17.714Z,12.82
2016-05-13T23:19:17.686Z,12.75
2016-05-13T23:20:17.689Z,12.68
2016-05-13T23:21:17.519Z,12.69
2016-05-13T23:22:17.506Z,12.76
2016-05-13T23:23:17.649Z,12.71
2016-05-13T23:24:17.637Z,12.6
2016-05-13T23:25:17.625Z,12.75
2016-05-13T23:26:17.611Z,12.6
2016-05-13T23:27:17.442Z,12.57
2016-05-13T23:28:17.429Z,12.49
2016-05-13T23:29:17.572Z,12.58
2016-05-13T23:30:17.556Z,12.53
2016-05-13T23:31:17.544Z,12.46
2016-05-13T23:32:17.530Z,12.44
2016-05-13T23:33:17.377Z,12.31
2016-05-13T23:34:17.521Z,12.47
2016-05-13T23:35:17.366Z,12.29
2016-05-13T23:36:17.338Z,12.34
2016-05-13T23:37:17.466Z,12.32
2016-05-13T23:38:17.452Z,12.31
2016-05-13T23:39:17.455Z,12.28
2016-05-13T23:40:17.457Z,12.25
2016-05-13T23:41:17.430Z,12.11
2016-05-13T23:42:17.401Z,12.24
2016-05-13T23:43:17.388Z,12.25
2016-05-13T23:44:17.376Z,12.22
2016-05-13T23:45:17.378Z,12.11
2016-05-13T23:46:17.193Z,12.22
2016-05-13T23:47:17.352Z,12.03
2016-05-13T23:48:17.792Z,12.11
2016-05-13T23:49:17.327Z,12.14
2016-05-13T23:50:17.157Z,12.11
2016-05-13T23:51:17.285Z,12.16
2016-05-13T23:52:17.304Z,12.16
2016-05-13T23:53:17.275Z,12.13
2016-05-13T23:54:17.261Z,12.14
2016-05-13T23:55:17.248Z,12.11
2016-05-13T23:56:17.236Z,12.11
2016-05-13T23:57:17.066Z,12.13
2016-05-13T23:58:17.211Z,12.01
2016-05-13T23:59:17.041Z,12.06
